sensor_id;sensor_type;location;lat;lon;timestamp;P1;durP1;ratioP1;P2;durP2;ratioP2
3427;SDS011;1727;42.624;23.406;2022-10-22T00:00:56;20.77;;;13.60;;
3427;SDS011;1727;42.624;23.406;2022-10-22T00:03:22;20.90;;;14.23;;
3427;SDS011;1727;42.624;23.406;2022-10-22T00:05:49;21.07;;;15.30;;
3427;SDS011;1727;42.624;23.406;2022-10-22T00:08:16;22.30;;;15.70;;
3427;SDS011;1727;42.624;23.406;2022-10-22T00:10:44;20.37;;;15.47;;
3427;SDS011;1727;42.624;23.406;2022-10-22T00:13:11;20.87;;;15.83;;
3427;SDS011;1727;42.624;23.406;2022-10-22T00:15:38;21.93;;;15.40;;
3427;SDS011;1727;42.624;23.406;2022-10-22T00:18:04;24.27;;;16.67;;
3427;SDS011;1727;42.624;23.406;2022-10-22T00:20:31;21.10;;;16.47;;
3427;SDS011;1727;42.624;23.406;2022-10-22T00:22:58;19.70;;;16.43;;
3427;SDS011;1727;42.624;23.406;2022-10-22T00:25:25;24.10;;;15.63;;
3427;SDS011;1727;42.624;23.406;2022-10-22T00:27:53;20.60;;;15.80;;
3427;SDS011;1727;42.624;23.406;2022-10-22T00:30:20;23.27;;;15.10;;
3427;SDS011;1727;42.624;23.406;2022-10-22T00:32:46;17.37;;;13.43;;
3427;SDS011;1727;42.624;23.406;2022-10-22T00:35:13;18.13;;;12.53;;
3427;SDS011;1727;42.624;23.406;2022-10-22T00:37:40;27.70;;;13.43;;
3427;SDS011;1727;42.624;23.406;2022-10-22T00:40:07;19.70;;;12.90;;
3427;SDS011;1727;42.624;23.406;2022-10-22T00:42:35;21.10;;;13.67;;
3427;SDS011;1727;42.624;23.406;2022-10-22T00:45:06;17.30;;;12.63;;
3427;SDS011;1727;42.624;23.406;2022-10-22T00:47:41;17.80;;;12.33;;
3427;SDS011;1727;42.624;23.406;2022-10-22T00:50:12;15.17;;;12.53;;
3427;SDS011;1727;42.624;23.406;2022-10-22T00:52:43;22.20;;;14.07;;
3427;SDS011;1727;42.624;23.406;2022-10-22T00:55:10;17.97;;;12.80;;
3427;SDS011;1727;42.624;23.406;2022-10-22T00:57:38;20.97;;;13.07;;
3427;SDS011;1727;42.624;23.406;2022-10-22T01:00:08;18.17;;;12.97;;
3427;SDS011;1727;42.624;23.406;2022-10-22T01:02:36;17.40;;;12.83;;
3427;SDS011;1727;42.624;23.406;2022-10-22T01:05:03;12.63;;;10.37;;
3427;SDS011;1727;42.624;23.406;2022-10-22T01:07:30;16.20;;;12.40;;
3427;SDS011;1727;42.624;23.406;2022-10-22T01:10:07;19.13;;;12.83;;
3427;SDS011;1727;42.624;23.406;2022-10-22T01:12:42;18.47;;;11.60;;
3427;SDS011;1727;42.624;23.406;2022-10-22T01:15:19;19.67;;;12.67;;
3427;SDS011;1727;42.624;23.406;2022-10-22T01:17:53;16.50;;;12.60;;
3427;SDS011;1727;42.624;23.406;2022-10-22T01:23:20;19.27;;;12.63;;
3427;SDS011;1727;42.624;23.406;2022-10-22T01:26:04;17.30;;;12.60;;
3427;SDS011;1727;42.624;23.406;2022-10-22T01:28:47;22.73;;;14.30;;
3427;SDS011;1727;42.624;23.406;2022-10-22T01:31:22;20.23;;;11.57;;
3427;SDS011;1727;42.624;23.406;2022-10-22T01:33:52;14.60;;;12.57;;
3427;SDS011;1727;42.624;23.406;2022-10-22T01:36:20;18.80;;;12.00;;
3427;SDS011;1727;42.624;23.406;2022-10-22T01:38:47;14.77;;;12.63;;
3427;SDS011;1727;42.624;23.406;2022-10-22T01:41:16;18.10;;;13.93;;
3427;SDS011;1727;42.624;23.406;2022-10-22T01:43:44;18.80;;;12.97;;
3427;SDS011;1727;42.624;23.406;2022-10-22T01:46:12;20.17;;;13.70;;
3427;SDS011;1727;42.624;23.406;2022-10-22T01:48:44;17.77;;;12.50;;
3427;SDS011;1727;42.624;23.406;2022-10-22T01:51:24;17.23;;;12.80;;
3427;SDS011;1727;42.624;23.406;2022-10-22T01:54:02;15.37;;;12.37;;
3427;SDS011;1727;42.624;23.406;2022-10-22T01:56:47;20.43;;;12.40;;
3427;SDS011;1727;42.624;23.406;2022-10-22T01:59:21;16.43;;;12.33;;
3427;SDS011;1727;42.624;23.406;2022-10-22T02:02:02;16.80;;;11.30;;
3427;SDS011;1727;42.624;23.406;2022-10-22T02:04:37;16.40;;;13.10;;
3427;SDS011;1727;42.624;23.406;2022-10-22T02:07:09;16.90;;;13.70;;
3427;SDS011;1727;42.624;23.406;2022-10-22T02:09:39;21.80;;;15.30;;
3427;SDS011;1727;42.624;23.406;2022-10-22T02:12:07;20.17;;;14.90;;
3427;SDS011;1727;42.624;23.406;2022-10-22T02:14:36;20.47;;;13.00;;
3427;SDS011;1727;42.624;23.406;2022-10-22T02:17:09;16.50;;;12.97;;
3427;SDS011;1727;42.624;23.406;2022-10-22T02:19:43;19.37;;;13.70;;
3427;SDS011;1727;42.624;23.406;2022-10-22T02:22:15;26.17;;;14.73;;
3427;SDS011;1727;42.624;23.406;2022-10-22T02:24:42;18.10;;;14.40;;
3427;SDS011;1727;42.624;23.406;2022-10-22T02:27:11;24.00;;;15.30;;
3427;SDS011;1727;42.624;23.406;2022-10-22T02:29:47;23.03;;;15.97;;
3427;SDS011;1727;42.624;23.406;2022-10-22T02:32:20;20.90;;;14.17;;
3427;SDS011;1727;42.624;23.406;2022-10-22T02:34:51;22.30;;;16.60;;
3427;SDS011;1727;42.624;23.406;2022-10-22T02:37:20;21.87;;;16.00;;
3427;SDS011;1727;42.624;23.406;2022-10-22T02:39:49;35.03;;;16.03;;
3427;SDS011;1727;42.624;23.406;2022-10-22T02:42:16;23.20;;;16.40;;
3427;SDS011;1727;42.624;23.406;2022-10-22T02:44:43;21.80;;;14.93;;
3427;SDS011;1727;42.624;23.406;2022-10-22T02:47:10;29.90;;;17.40;;
3427;SDS011;1727;42.624;23.406;2022-10-22T02:49:38;28.00;;;16.10;;
3427;SDS011;1727;42.624;23.406;2022-10-22T02:52:05;25.73;;;16.37;;
3427;SDS011;1727;42.624;23.406;2022-10-22T02:54:32;24.27;;;16.77;;
3427;SDS011;1727;42.624;23.406;2022-10-22T02:56:58;22.53;;;15.30;;
3427;SDS011;1727;42.624;23.406;2022-10-22T02:59:25;22.97;;;15.97;;
3427;SDS011;1727;42.624;23.406;2022-10-22T03:01:52;19.37;;;14.37;;
3427;SDS011;1727;42.624;23.406;2022-10-22T03:04:19;16.90;;;13.27;;
3427;SDS011;1727;42.624;23.406;2022-10-22T03:06:47;16.70;;;12.90;;
3427;SDS011;1727;42.624;23.406;2022-10-22T03:09:14;18.83;;;12.87;;
3427;SDS011;1727;42.624;23.406;2022-10-22T03:11:41;15.23;;;13.20;;
3427;SDS011;1727;42.624;23.406;2022-10-22T03:14:08;23.40;;;15.70;;
3427;SDS011;1727;42.624;23.406;2022-10-22T03:16:35;25.30;;;14.53;;
3427;SDS011;1727;42.624;23.406;2022-10-22T03:19:02;22.47;;;16.37;;
3427;SDS011;1727;42.624;23.406;2022-10-22T03:21:30;23.73;;;15.80;;
3427;SDS011;1727;42.624;23.406;2022-10-22T03:24:02;24.10;;;16.57;;
3427;SDS011;1727;42.624;23.406;2022-10-22T03:26:34;23.53;;;16.20;;
3427;SDS011;1727;42.624;23.406;2022-10-22T03:29:02;25.70;;;15.40;;
3427;SDS011;1727;42.624;23.406;2022-10-22T03:31:30;23.20;;;16.00;;
3427;SDS011;1727;42.624;23.406;2022-10-22T03:33:56;20.47;;;16.00;;
3427;SDS011;1727;42.624;23.406;2022-10-22T03:36:23;21.57;;;14.80;;
3427;SDS011;1727;42.624;23.406;2022-10-22T03:38:51;22.80;;;14.57;;
3427;SDS011;1727;42.624;23.406;2022-10-22T03:41:20;20.80;;;14.47;;
3427;SDS011;1727;42.624;23.406;2022-10-22T03:43:47;23.90;;;16.33;;
3427;SDS011;1727;42.624;23.406;2022-10-22T03:46:15;29.40;;;18.93;;
3427;SDS011;1727;42.624;23.406;2022-10-22T03:48:42;32.43;;;22.90;;
3427;SDS011;1727;42.624;23.406;2022-10-22T03:51:09;30.30;;;22.03;;
3427;SDS011;1727;42.624;23.406;2022-10-22T03:53:35;31.03;;;21.20;;
3427;SDS011;1727;42.624;23.406;2022-10-22T03:56:06;39.63;;;20.20;;
3427;SDS011;1727;42.624;23.406;2022-10-22T03:58:35;38.57;;;20.73;;
3427;SDS011;1727;42.624;23.406;2022-10-22T04:01:03;29.53;;;20.03;;
3427;SDS011;1727;42.624;23.406;2022-10-22T04:03:31;28.67;;;20.87;;
3427;SDS011;1727;42.624;23.406;2022-10-22T04:05:59;26.50;;;18.70;;
3427;SDS011;1727;42.624;23.406;2022-10-22T04:08:27;30.20;;;19.40;;
3427;SDS011;1727;42.624;23.406;2022-10-22T04:10:54;25.40;;;19.33;;
3427;SDS011;1727;42.624;23.406;2022-10-22T04:13:21;31.60;;;19.90;;
3427;SDS011;1727;42.624;23.406;2022-10-22T04:15:49;36.37;;;23.70;;
3427;SDS011;1727;42.624;23.406;2022-10-22T04:18:16;30.83;;;19.43;;
3427;SDS011;1727;42.624;23.406;2022-10-22T04:20:43;32.13;;;22.30;;
3427;SDS011;1727;42.624;23.406;2022-10-22T04:23:11;36.50;;;22.27;;
3427;SDS011;1727;42.624;23.406;2022-10-22T04:25:38;38.20;;;18.07;;
3427;SDS011;1727;42.624;23.406;2022-10-22T04:28:05;29.70;;;20.73;;
3427;SDS011;1727;42.624;23.406;2022-10-22T04:30:33;27.97;;;19.47;;
3427;SDS011;1727;42.624;23.406;2022-10-22T04:33:01;31.30;;;19.83;;
3427;SDS011;1727;42.624;23.406;2022-10-22T04:35:28;33.33;;;20.07;;
3427;SDS011;1727;42.624;23.406;2022-10-22T04:37:55;36.93;;;23.30;;
3427;SDS011;1727;42.624;23.406;2022-10-22T04:40:21;36.43;;;21.50;;
3427;SDS011;1727;42.624;23.406;2022-10-22T04:42:48;32.23;;;20.80;;
3427;SDS011;1727;42.624;23.406;2022-10-22T04:45:15;31.87;;;20.20;;
3427;SDS011;1727;42.624;23.406;2022-10-22T04:47:42;36.67;;;21.07;;
3427;SDS011;1727;42.624;23.406;2022-10-22T04:50:10;33.53;;;18.97;;
3427;SDS011;1727;42.624;23.406;2022-10-22T04:52:36;29.77;;;22.00;;
3427;SDS011;1727;42.624;23.406;2022-10-22T04:55:04;35.30;;;23.37;;
3427;SDS011;1727;42.624;23.406;2022-10-22T04:57:31;32.97;;;20.47;;
3427;SDS011;1727;42.624;23.406;2022-10-22T04:59:58;38.70;;;21.50;;
3427;SDS011;1727;42.624;23.406;2022-10-22T05:02:24;35.80;;;22.10;;
3427;SDS011;1727;42.624;23.406;2022-10-22T05:04:51;32.80;;;21.57;;
3427;SDS011;1727;42.624;23.406;2022-10-22T05:07:19;25.93;;;19.80;;
3427;SDS011;1727;42.624;23.406;2022-10-22T05:09:47;33.07;;;21.00;;
3427;SDS011;1727;42.624;23.406;2022-10-22T05:12:14;36.93;;;19.90;;
3427;SDS011;1727;42.624;23.406;2022-10-22T05:14:41;27.10;;;20.07;;
3427;SDS011;1727;42.624;23.406;2022-10-22T05:17:08;28.90;;;20.23;;
3427;SDS011;1727;42.624;23.406;2022-10-22T05:19:34;34.40;;;22.83;;
3427;SDS011;1727;42.624;23.406;2022-10-22T05:22:02;39.03;;;22.97;;
3427;SDS011;1727;42.624;23.406;2022-10-22T05:24:32;34.47;;;22.63;;
3427;SDS011;1727;42.624;23.406;2022-10-22T05:27:00;36.83;;;24.90;;
3427;SDS011;1727;42.624;23.406;2022-10-22T05:29:27;31.63;;;23.20;;
3427;SDS011;1727;42.624;23.406;2022-10-22T05:31:54;35.60;;;24.13;;
3427;SDS011;1727;42.624;23.406;2022-10-22T05:34:21;30.60;;;20.40;;
3427;SDS011;1727;42.624;23.406;2022-10-22T05:36:48;27.57;;;19.53;;
3427;SDS011;1727;42.624;23.406;2022-10-22T05:39:15;23.43;;;15.40;;
3427;SDS011;1727;42.624;23.406;2022-10-22T05:41:43;21.47;;;16.50;;
3427;SDS011;1727;42.624;23.406;2022-10-22T05:44:10;24.37;;;16.00;;
3427;SDS011;1727;42.624;23.406;2022-10-22T05:46:38;25.77;;;17.40;;
3427;SDS011;1727;42.624;23.406;2022-10-22T05:49:05;21.30;;;16.57;;
3427;SDS011;1727;42.624;23.406;2022-10-22T05:51:33;23.50;;;15.13;;
3427;SDS011;1727;42.624;23.406;2022-10-22T05:54:03;19.47;;;13.67;;
3427;SDS011;1727;42.624;23.406;2022-10-22T05:56:31;18.30;;;13.07;;
3427;SDS011;1727;42.624;23.406;2022-10-22T05:59:00;19.50;;;13.40;;
3427;SDS011;1727;42.624;23.406;2022-10-22T06:01:27;15.80;;;12.60;;
3427;SDS011;1727;42.624;23.406;2022-10-22T06:03:56;15.70;;;11.60;;
3427;SDS011;1727;42.624;23.406;2022-10-22T06:06:26;16.27;;;12.27;;
3427;SDS011;1727;42.624;23.406;2022-10-22T06:08:55;15.80;;;11.60;;
3427;SDS011;1727;42.624;23.406;2022-10-22T06:11:26;15.13;;;11.57;;
3427;SDS011;1727;42.624;23.406;2022-10-22T06:13:53;17.70;;;12.43;;
3427;SDS011;1727;42.624;23.406;2022-10-22T06:16:21;25.00;;;12.80;;
3427;SDS011;1727;42.624;23.406;2022-10-22T06:18:48;26.67;;;13.10;;
3427;SDS011;1727;42.624;23.406;2022-10-22T06:21:15;17.43;;;11.90;;
3427;SDS011;1727;42.624;23.406;2022-10-22T06:23:42;20.33;;;13.50;;
3427;SDS011;1727;42.624;23.406;2022-10-22T06:26:09;16.77;;;12.67;;
3427;SDS011;1727;42.624;23.406;2022-10-22T06:28:36;20.70;;;13.57;;
3427;SDS011;1727;42.624;23.406;2022-10-22T06:31:04;18.27;;;11.83;;
3427;SDS011;1727;42.624;23.406;2022-10-22T06:33:33;16.20;;;11.40;;
3427;SDS011;1727;42.624;23.406;2022-10-22T06:36:07;16.60;;;12.93;;
3427;SDS011;1727;42.624;23.406;2022-10-22T06:38:36;16.27;;;12.43;;
3427;SDS011;1727;42.624;23.406;2022-10-22T06:41:03;18.37;;;13.30;;
3427;SDS011;1727;42.624;23.406;2022-10-22T06:43:30;15.57;;;13.87;;
3427;SDS011;1727;42.624;23.406;2022-10-22T06:45:58;20.97;;;16.27;;
3427;SDS011;1727;42.624;23.406;2022-10-22T06:48:25;24.67;;;17.50;;
3427;SDS011;1727;42.624;23.406;2022-10-22T06:50:54;22.40;;;17.40;;
3427;SDS011;1727;42.624;23.406;2022-10-22T06:53:20;30.77;;;17.80;;
3427;SDS011;1727;42.624;23.406;2022-10-22T06:55:47;23.10;;;16.73;;
3427;SDS011;1727;42.624;23.406;2022-10-22T06:58:14;26.13;;;16.90;;
3427;SDS011;1727;42.624;23.406;2022-10-22T07:00:41;24.13;;;16.30;;
3427;SDS011;1727;42.624;23.406;2022-10-22T07:03:08;20.80;;;16.80;;
3427;SDS011;1727;42.624;23.406;2022-10-22T07:05:38;25.37;;;16.30;;
3427;SDS011;1727;42.624;23.406;2022-10-22T07:08:06;23.83;;;17.70;;
3427;SDS011;1727;42.624;23.406;2022-10-22T07:10:33;23.67;;;17.40;;
3427;SDS011;1727;42.624;23.406;2022-10-22T07:13:00;27.27;;;17.13;;
3427;SDS011;1727;42.624;23.406;2022-10-22T07:15:27;25.80;;;17.83;;
3427;SDS011;1727;42.624;23.406;2022-10-22T07:17:53;25.93;;;17.07;;
3427;SDS011;1727;42.624;23.406;2022-10-22T07:20:20;25.50;;;18.43;;
3427;SDS011;1727;42.624;23.406;2022-10-22T07:22:47;29.70;;;19.57;;
3427;SDS011;1727;42.624;23.406;2022-10-22T07:25:15;29.73;;;19.53;;
3427;SDS011;1727;42.624;23.406;2022-10-22T07:27:43;33.63;;;19.73;;
3427;SDS011;1727;42.624;23.406;2022-10-22T07:30:10;30.90;;;20.03;;
3427;SDS011;1727;42.624;23.406;2022-10-22T07:32:37;23.20;;;18.43;;
3427;SDS011;1727;42.624;23.406;2022-10-22T07:35:04;37.00;;;19.43;;
3427;SDS011;1727;42.624;23.406;2022-10-22T07:37:32;32.80;;;19.23;;
3427;SDS011;1727;42.624;23.406;2022-10-22T07:39:58;29.10;;;20.77;;
3427;SDS011;1727;42.624;23.406;2022-10-22T07:42:26;46.10;;;20.90;;
3427;SDS011;1727;42.624;23.406;2022-10-22T07:44:53;25.77;;;20.10;;
3427;SDS011;1727;42.624;23.406;2022-10-22T07:47:20;32.10;;;20.30;;
3427;SDS011;1727;42.624;23.406;2022-10-22T07:49:47;37.53;;;22.60;;
3427;SDS011;1727;42.624;23.406;2022-10-22T07:52:13;32.10;;;23.53;;
3427;SDS011;1727;42.624;23.406;2022-10-22T07:54:40;30.50;;;20.77;;
3427;SDS011;1727;42.624;23.406;2022-10-22T07:57:07;37.77;;;22.57;;
3427;SDS011;1727;42.624;23.406;2022-10-22T07:59:35;34.40;;;20.93;;
3427;SDS011;1727;42.624;23.406;2022-10-22T08:02:02;31.77;;;20.70;;
3427;SDS011;1727;42.624;23.406;2022-10-22T08:04:28;36.60;;;20.63;;
3427;SDS011;1727;42.624;23.406;2022-10-22T08:06:55;28.47;;;21.50;;
3427;SDS011;1727;42.624;23.406;2022-10-22T08:09:22;29.37;;;21.07;;
3427;SDS011;1727;42.624;23.406;2022-10-22T08:11:49;37.80;;;22.20;;
3427;SDS011;1727;42.624;23.406;2022-10-22T08:14:15;32.47;;;21.20;;
3427;SDS011;1727;42.624;23.406;2022-10-22T08:16:45;34.97;;;24.13;;
3427;SDS011;1727;42.624;23.406;2022-10-22T08:19:12;36.13;;;22.87;;
3427;SDS011;1727;42.624;23.406;2022-10-22T08:21:43;28.63;;;20.17;;
3427;SDS011;1727;42.624;23.406;2022-10-22T08:24:10;35.67;;;21.80;;
3427;SDS011;1727;42.624;23.406;2022-10-22T08:26:37;28.53;;;20.67;;
3427;SDS011;1727;42.624;23.406;2022-10-22T08:29:04;28.87;;;19.17;;
3427;SDS011;1727;42.624;23.406;2022-10-22T08:31:32;31.80;;;21.07;;
3427;SDS011;1727;42.624;23.406;2022-10-22T08:34:01;24.10;;;17.30;;
3427;SDS011;1727;42.624;23.406;2022-10-22T08:36:29;28.70;;;20.73;;
3427;SDS011;1727;42.624;23.406;2022-10-22T08:38:56;31.10;;;19.50;;
3427;SDS011;1727;42.624;23.406;2022-10-22T08:41:23;32.90;;;18.90;;
3427;SDS011;1727;42.624;23.406;2022-10-22T08:44:00;26.70;;;20.80;;
3427;SDS011;1727;42.624;23.406;2022-10-22T08:46:46;26.00;;;18.83;;
3427;SDS011;1727;42.624;23.406;2022-10-22T08:49:25;28.00;;;20.80;;
3427;SDS011;1727;42.624;23.406;2022-10-22T08:51:54;24.90;;;19.53;;
3427;SDS011;1727;42.624;23.406;2022-10-22T08:54:24;37.43;;;20.33;;
3427;SDS011;1727;42.624;23.406;2022-10-22T08:57:01;34.23;;;19.50;;
3427;SDS011;1727;42.624;23.406;2022-10-22T08:59:41;26.17;;;17.97;;
3427;SDS011;1727;42.624;23.406;2022-10-22T09:02:16;27.20;;;19.37;;
3427;SDS011;1727;42.624;23.406;2022-10-22T09:04:53;20.63;;;17.07;;
3427;SDS011;1727;42.624;23.406;2022-10-22T09:07:27;22.67;;;14.90;;
3427;SDS011;1727;42.624;23.406;2022-10-22T09:09:54;19.50;;;14.80;;
3427;SDS011;1727;42.624;23.406;2022-10-22T09:12:26;23.57;;;18.63;;
3427;SDS011;1727;42.624;23.406;2022-10-22T09:14:53;21.30;;;16.93;;
3427;SDS011;1727;42.624;23.406;2022-10-22T09:17:23;31.23;;;16.23;;
3427;SDS011;1727;42.624;23.406;2022-10-22T09:20:02;24.70;;;18.03;;
3427;SDS011;1727;42.624;23.406;2022-10-22T09:22:36;28.47;;;17.87;;
3427;SDS011;1727;42.624;23.406;2022-10-22T09:25:10;28.23;;;18.73;;
3427;SDS011;1727;42.624;23.406;2022-10-22T09:27:44;24.70;;;16.47;;
3427;SDS011;1727;42.624;23.406;2022-10-22T09:30:12;30.13;;;18.70;;
3427;SDS011;1727;42.624;23.406;2022-10-22T09:32:42;22.70;;;17.40;;
3427;SDS011;1727;42.624;23.406;2022-10-22T09:35:11;25.13;;;17.67;;
3427;SDS011;1727;42.624;23.406;2022-10-22T09:37:45;23.60;;;17.43;;
3427;SDS011;1727;42.624;23.406;2022-10-22T09:40:14;24.27;;;15.47;;
3427;SDS011;1727;42.624;23.406;2022-10-22T09:42:42;26.00;;;17.40;;
3427;SDS011;1727;42.624;23.406;2022-10-22T09:45:14;26.20;;;16.93;;
3427;SDS011;1727;42.624;23.406;2022-10-22T09:47:44;23.07;;;15.30;;
3427;SDS011;1727;42.624;23.406;2022-10-22T09:50:20;26.40;;;15.37;;
3427;SDS011;1727;42.624;23.406;2022-10-22T09:52:58;19.37;;;15.77;;
3427;SDS011;1727;42.624;23.406;2022-10-22T09:55:26;19.03;;;15.40;;
3427;SDS011;1727;42.624;23.406;2022-10-22T09:57:53;20.70;;;14.87;;
3427;SDS011;1727;42.624;23.406;2022-10-22T10:00:21;22.87;;;16.50;;
3427;SDS011;1727;42.624;23.406;2022-10-22T10:02:52;22.50;;;16.23;;
3427;SDS011;1727;42.624;23.406;2022-10-22T10:05:26;30.87;;;17.10;;
3427;SDS011;1727;42.624;23.406;2022-10-22T10:07:55;21.60;;;15.20;;
3427;SDS011;1727;42.624;23.406;2022-10-22T10:10:27;19.20;;;14.30;;
3427;SDS011;1727;42.624;23.406;2022-10-22T10:13:07;20.43;;;15.03;;
3427;SDS011;1727;42.624;23.406;2022-10-22T10:15:44;22.43;;;15.70;;
3427;SDS011;1727;42.624;23.406;2022-10-22T10:18:22;19.23;;;15.00;;
3427;SDS011;1727;42.624;23.406;2022-10-22T10:21:01;27.10;;;15.53;;
3427;SDS011;1727;42.624;23.406;2022-10-22T10:23:35;18.43;;;15.30;;
3427;SDS011;1727;42.624;23.406;2022-10-22T10:26:12;17.70;;;14.60;;
3427;SDS011;1727;42.624;23.406;2022-10-22T10:28:47;22.10;;;14.83;;
3427;SDS011;1727;42.624;23.406;2022-10-22T10:31:26;19.27;;;13.87;;
3427;SDS011;1727;42.624;23.406;2022-10-22T10:34:01;37.67;;;14.07;;
3427;SDS011;1727;42.624;23.406;2022-10-22T10:36:35;23.77;;;14.53;;
3427;SDS011;1727;42.624;23.406;2022-10-22T10:39:09;19.53;;;12.83;;
3427;SDS011;1727;42.624;23.406;2022-10-22T10:41:46;16.70;;;12.67;;
3427;SDS011;1727;42.624;23.406;2022-10-22T10:44:29;22.80;;;12.63;;
3427;SDS011;1727;42.624;23.406;2022-10-22T10:47:06;18.10;;;13.10;;
3427;SDS011;1727;42.624;23.406;2022-10-22T10:49:47;15.87;;;13.03;;
3427;SDS011;1727;42.624;23.406;2022-10-22T10:52:21;19.73;;;12.80;;
3427;SDS011;1727;42.624;23.406;2022-10-22T10:54:58;14.97;;;13.20;;
3427;SDS011;1727;42.624;23.406;2022-10-22T10:57:38;18.30;;;13.10;;
3427;SDS011;1727;42.624;23.406;2022-10-22T11:00:15;16.77;;;13.23;;
3427;SDS011;1727;42.624;23.406;2022-10-22T11:02:50;15.27;;;13.07;;
3427;SDS011;1727;42.624;23.406;2022-10-22T11:05:33;13.67;;;12.20;;
3427;SDS011;1727;42.624;23.406;2022-10-22T11:08:07;15.73;;;12.67;;
3427;SDS011;1727;42.624;23.406;2022-10-22T11:10:39;17.30;;;13.60;;
3427;SDS011;1727;42.624;23.406;2022-10-22T11:13:11;18.87;;;14.53;;
3427;SDS011;1727;42.624;23.406;2022-10-22T11:15:44;26.10;;;14.50;;
3427;SDS011;1727;42.624;23.406;2022-10-22T11:18:16;18.83;;;14.20;;
3427;SDS011;1727;42.624;23.406;2022-10-22T11:20:51;21.00;;;12.67;;
3427;SDS011;1727;42.624;23.406;2022-10-22T11:23:31;17.03;;;11.77;;
3427;SDS011;1727;42.624;23.406;2022-10-22T11:26:04;18.20;;;13.50;;
3427;SDS011;1727;42.624;23.406;2022-10-22T11:28:39;28.23;;;14.17;;
3427;SDS011;1727;42.624;23.406;2022-10-22T11:31:11;19.63;;;13.67;;
3427;SDS011;1727;42.624;23.406;2022-10-22T11:33:43;19.03;;;13.20;;
3427;SDS011;1727;42.624;23.406;2022-10-22T11:36:17;17.17;;;12.10;;
3427;SDS011;1727;42.624;23.406;2022-10-22T11:38:49;15.93;;;11.27;;
3427;SDS011;1727;42.624;23.406;2022-10-22T11:41:17;24.63;;;13.40;;
3427;SDS011;1727;42.624;23.406;2022-10-22T11:43:55;16.60;;;12.70;;
3427;SDS011;1727;42.624;23.406;2022-10-22T11:46:37;14.47;;;12.20;;
3427;SDS011;1727;42.624;23.406;2022-10-22T11:49:16;21.53;;;12.40;;
3427;SDS011;1727;42.624;23.406;2022-10-22T11:51:45;20.90;;;13.13;;
3427;SDS011;1727;42.624;23.406;2022-10-22T11:54:30;13.20;;;10.40;;
3427;SDS011;1727;42.624;23.406;2022-10-22T11:57:17;15.93;;;11.30;;
3427;SDS011;1727;42.624;23.406;2022-10-22T11:59:50;16.90;;;12.43;;
3427;SDS011;1727;42.624;23.406;2022-10-22T12:02:22;23.20;;;12.40;;
3427;SDS011;1727;42.624;23.406;2022-10-22T12:07:50;15.00;;;11.37;;
3427;SDS011;1727;42.624;23.406;2022-10-22T12:10:24;15.00;;;11.40;;
3427;SDS011;1727;42.624;23.406;2022-10-22T12:12:54;14.00;;;10.77;;
3427;SDS011;1727;42.624;23.406;2022-10-22T12:15:23;15.60;;;11.77;;
3427;SDS011;1727;42.624;23.406;2022-10-22T12:17:55;15.20;;;11.10;;
3427;SDS011;1727;42.624;23.406;2022-10-22T12:20:25;17.93;;;12.63;;
3427;SDS011;1727;42.624;23.406;2022-10-22T12:22:53;16.80;;;12.20;;
3427;SDS011;1727;42.624;23.406;2022-10-22T12:25:24;20.50;;;10.70;;
3427;SDS011;1727;42.624;23.406;2022-10-22T12:27:56;14.60;;;12.30;;
3427;SDS011;1727;42.624;23.406;2022-10-22T12:30:25;15.60;;;10.90;;
3427;SDS011;1727;42.624;23.406;2022-10-22T12:32:55;12.50;;;11.23;;
3427;SDS011;1727;42.624;23.406;2022-10-22T12:35:24;12.43;;;10.83;;
3427;SDS011;1727;42.624;23.406;2022-10-22T12:37:54;23.23;;;11.80;;
3427;SDS011;1727;42.624;23.406;2022-10-22T12:40:24;13.70;;;11.30;;
3427;SDS011;1727;42.624;23.406;2022-10-22T12:42:53;12.50;;;10.90;;
3427;SDS011;1727;42.624;23.406;2022-10-22T12:45:21;18.87;;;12.07;;
3427;SDS011;1727;42.624;23.406;2022-10-22T12:47:49;24.77;;;11.67;;
3427;SDS011;1727;42.624;23.406;2022-10-22T12:50:18;18.20;;;11.63;;
3427;SDS011;1727;42.624;23.406;2022-10-22T12:52:48;15.47;;;12.20;;
3427;SDS011;1727;42.624;23.406;2022-10-22T12:55:15;14.30;;;12.23;;
3427;SDS011;1727;42.624;23.406;2022-10-22T12:57:46;13.20;;;11.23;;
3427;SDS011;1727;42.624;23.406;2022-10-22T13:00:22;12.80;;;11.50;;
3427;SDS011;1727;42.624;23.406;2022-10-22T13:02:51;18.83;;;11.10;;
3427;SDS011;1727;42.624;23.406;2022-10-22T13:05:22;14.30;;;10.90;;
3427;SDS011;1727;42.624;23.406;2022-10-22T13:07:52;14.43;;;11.63;;
3427;SDS011;1727;42.624;23.406;2022-10-22T13:10:23;12.77;;;10.80;;
3427;SDS011;1727;42.624;23.406;2022-10-22T13:12:54;12.50;;;11.10;;
3427;SDS011;1727;42.624;23.406;2022-10-22T13:15:33;14.20;;;11.73;;
3427;SDS011;1727;42.624;23.406;2022-10-22T13:18:02;11.63;;;9.83;;
3427;SDS011;1727;42.624;23.406;2022-10-22T13:20:31;11.80;;;10.17;;
3427;SDS011;1727;42.624;23.406;2022-10-22T13:23:01;13.37;;;10.70;;
3427;SDS011;1727;42.624;23.406;2022-10-22T13:25:30;16.67;;;11.53;;
3427;SDS011;1727;42.624;23.406;2022-10-22T13:28:00;14.33;;;10.50;;
3427;SDS011;1727;42.624;23.406;2022-10-22T13:30:49;15.33;;;11.97;;
3427;SDS011;1727;42.624;23.406;2022-10-22T13:33:20;15.13;;;11.23;;
3427;SDS011;1727;42.624;23.406;2022-10-22T13:35:50;13.33;;;10.77;;
3427;SDS011;1727;42.624;23.406;2022-10-22T13:38:18;16.50;;;11.07;;
3427;SDS011;1727;42.624;23.406;2022-10-22T13:40:47;18.70;;;9.90;;
3427;SDS011;1727;42.624;23.406;2022-10-22T13:43:15;11.67;;;10.50;;
3427;SDS011;1727;42.624;23.406;2022-10-22T13:45:43;15.10;;;10.70;;
3427;SDS011;1727;42.624;23.406;2022-10-22T13:48:11;11.93;;;9.80;;
3427;SDS011;1727;42.624;23.406;2022-10-22T13:50:40;16.47;;;10.97;;
3427;SDS011;1727;42.624;23.406;2022-10-22T13:53:08;13.07;;;11.20;;
3427;SDS011;1727;42.624;23.406;2022-10-22T13:55:42;13.93;;;10.63;;
3427;SDS011;1727;42.624;23.406;2022-10-22T13:58:10;16.25;;;11.27;;
3427;SDS011;1727;42.624;23.406;2022-10-22T14:00:40;16.07;;;10.30;;
3427;SDS011;1727;42.624;23.406;2022-10-22T14:03:09;16.13;;;10.30;;
3427;SDS011;1727;42.624;23.406;2022-10-22T14:05:39;18.20;;;10.20;;
3427;SDS011;1727;42.624;23.406;2022-10-22T14:08:08;15.63;;;10.40;;
3427;SDS011;1727;42.624;23.406;2022-10-22T14:10:37;13.07;;;10.40;;
3427;SDS011;1727;42.624;23.406;2022-10-22T14:13:04;18.83;;;10.43;;
3427;SDS011;1727;42.624;23.406;2022-10-22T14:15:32;12.40;;;10.20;;
3427;SDS011;1727;42.624;23.406;2022-10-22T14:18:01;14.23;;;10.10;;
3427;SDS011;1727;42.624;23.406;2022-10-22T14:20:30;20.83;;;11.23;;
3427;SDS011;1727;42.624;23.406;2022-10-22T14:23:06;12.57;;;10.13;;
3427;SDS011;1727;42.624;23.406;2022-10-22T14:25:42;20.90;;;10.70;;
3427;SDS011;1727;42.624;23.406;2022-10-22T14:28:09;12.90;;;10.00;;
3427;SDS011;1727;42.624;23.406;2022-10-22T14:30:37;15.87;;;11.80;;
3427;SDS011;1727;42.624;23.406;2022-10-22T14:33:09;16.80;;;11.73;;
3427;SDS011;1727;42.624;23.406;2022-10-22T14:35:40;25.50;;;12.03;;
3427;SDS011;1727;42.624;23.406;2022-10-22T14:38:07;23.90;;;13.03;;
3427;SDS011;1727;42.624;23.406;2022-10-22T14:40:34;16.10;;;12.00;;
3427;SDS011;1727;42.624;23.406;2022-10-22T14:43:03;33.40;;;13.47;;
3427;SDS011;1727;42.624;23.406;2022-10-22T14:45:30;22.80;;;12.43;;
3427;SDS011;1727;42.624;23.406;2022-10-22T14:47:57;19.27;;;11.10;;
3427;SDS011;1727;42.624;23.406;2022-10-22T14:50:25;14.33;;;11.90;;
3427;SDS011;1727;42.624;23.406;2022-10-22T14:52:52;15.20;;;10.60;;
3427;SDS011;1727;42.624;23.406;2022-10-22T14:55:21;19.03;;;11.97;;
3427;SDS011;1727;42.624;23.406;2022-10-22T14:57:48;25.20;;;16.27;;